createdAt,value
2019-03-17T00:00:37.925Z,80.62
2019-03-17T00:01:37.931Z,79.69
2019-03-17T00:02:37.928Z,80.72
2019-03-17T00:03:37.892Z,80.72
2019-03-17T00:04:37.890Z,80.65
2019-03-17T00:05:37.865Z,80.62
2019-03-17T00:06:37.862Z,80.76
2019-03-17T00:07:37.874Z,81.23
2019-03-17T00:08:37.838Z,80.76
2019-03-17T00:09:37.833Z,80.31
2019-03-17T00:10:37.823Z,80.65
2019-03-17T00:11:37.798Z,80.76
2019-03-17T00:12:37.847Z,79.93
2019-03-17T00:13:37.799Z,80.86
2019-03-17T00:14:37.777Z,79.73
2019-03-17T00:15:37.760Z,79.90
2019-03-17T00:16:37.749Z,79.80
2019-03-17T00:17:37.736Z,80.00
2019-03-17T00:18:37.763Z,79.63
2019-03-17T00:19:37.717Z,80.04
2019-03-17T00:20:37.718Z,79.80
2019-03-17T00:21:37.690Z,79.90
2019-03-17T00:22:37.689Z,80.00
2019-03-17T00:23:37.689Z,80.04
2019-03-17T00:24:37.659Z,79.93
2019-03-17T00:25:38.168Z,79.38
2019-03-17T00:26:37.635Z,79.83
2019-03-17T00:27:37.629Z,79.42
2019-03-17T00:28:37.614Z,79.11
2019-03-17T00:29:37.607Z,80.14
2019-03-17T00:30:37.594Z,79.83
2019-03-17T00:31:37.605Z,79.83
2019-03-17T00:32:37.571Z,79.38
2019-03-17T00:33:37.555Z,79.93
2019-03-17T00:34:44.041Z,78.87
2019-03-17T00:35:38.530Z,78.56
2019-03-17T00:36:37.549Z,78.29
2019-03-17T00:37:37.516Z,78.50
2019-03-17T00:38:37.510Z,78.50
2019-03-17T00:39:37.496Z,78.56
2019-03-17T00:40:37.497Z,78.50
2019-03-17T00:41:37.497Z,78.81
2019-03-17T00:42:37.465Z,78.50
2019-03-17T00:43:37.445Z,78.91
2019-03-17T00:44:37.434Z,78.81
2019-03-17T00:45:37.431Z,78.39
2019-03-17T00:46:37.470Z,78.81
2019-03-17T00:47:37.406Z,78.50
2019-03-17T00:48:37.388Z,78.39
2019-03-17T00:49:37.381Z,78.50
2019-03-17T00:50:37.370Z,78.81
2019-03-17T00:51:37.354Z,78.29
2019-03-17T00:52:37.472Z,78.50
2019-03-17T00:53:37.352Z,78.50
2019-03-17T00:54:37.320Z,78.29
2019-03-17T00:55:37.315Z,77.78
2019-03-17T00:56:37.298Z,78.39
2019-03-17T00:57:37.298Z,78.60
2019-03-17T00:58:37.311Z,77.88
2019-03-17T00:59:37.265Z,77.78
2019-03-17T01:00:37.256Z,77.47
2019-03-17T01:01:37.247Z,78.70
2019-03-17T01:02:37.232Z,78.09
2019-03-17T01:03:37.274Z,77.78
2019-03-17T01:04:37.214Z,77.58
2019-03-17T01:05:37.200Z,77.37
2019-03-17T01:06:37.193Z,77.17
2019-03-17T01:07:37.206Z,77.26
2019-03-17T01:08:37.237Z,77.37
2019-03-17T01:09:37.185Z,77.26
2019-03-17T01:10:37.154Z,76.96
2019-03-17T01:11:37.156Z,76.45
2019-03-17T01:12:37.130Z,76.75
2019-03-17T01:13:37.118Z,76.55
2019-03-17T01:14:37.128Z,76.86
2019-03-17T01:15:37.101Z,76.68
2019-03-17T01:16:37.076Z,76.34
2019-03-17T01:17:37.065Z,76.24
2019-03-17T01:18:37.095Z,76.65
2019-03-17T01:19:37.049Z,75.87
2019-03-17T01:20:37.038Z,75.93
2019-03-17T01:21:37.021Z,75.73
2019-03-17T01:22:37.010Z,75.93
2019-03-17T01:23:36.999Z,76.04
2019-03-17T01:24:37.019Z,76.04
2019-03-17T01:25:37.011Z,76.65
2019-03-17T01:26:36.981Z,76.34
2019-03-17T01:27:36.971Z,75.62
2019-03-17T01:28:36.950Z,75.83
2019-03-17T01:29:36.939Z,75.62
2019-03-17T01:30:36.935Z,75.32
2019-03-17T01:31:36.944Z,75.52
2019-03-17T01:32:36.905Z,75.62
2019-03-17T01:33:36.888Z,75.52
2019-03-17T01:34:37.121Z,75.56
2019-03-17T01:35:36.867Z,75.73
2019-03-17T01:36:36.856Z,75.52
2019-03-17T01:37:36.846Z,74.91
2019-03-17T01:38:36.834Z,75.73
2019-03-17T01:39:36.850Z,75.52
2019-03-17T01:40:36.815Z,75.62
2019-03-17T01:41:36.848Z,75.01
2019-03-17T01:42:36.795Z,75.01
2019-03-17T01:43:36.777Z,74.60
2019-03-17T01:44:36.767Z,74.91
2019-03-17T01:45:36.779Z,74.70
2019-03-17T01:46:36.751Z,74.80
2019-03-17T01:47:36.766Z,74.70
2019-03-17T01:48:36.726Z,74.80
2019-03-17T01:49:36.714Z,74.40
2019-03-17T01:50:36.705Z,73.98
2019-03-17T01:51:36.710Z,73.98
2019-03-17T01:52:36.812Z,74.40
2019-03-17T01:53:36.670Z,74.29
2019-03-17T01:54:36.656Z,75.01
2019-03-17T01:55:36.647Z,74.40
2019-03-17T01:56:36.638Z,74.60
2019-03-17T01:57:36.626Z,74.08
2019-03-17T01:58:36.651Z,74.49
2019-03-17T01:59:36.602Z,74.22
2019-03-17T02:00:36.586Z,74.29
2019-03-17T02:01:36.580Z,73.88
2019-03-17T02:02:36.576Z,74.40
2019-03-17T02:03:36.566Z,73.47
2019-03-17T02:04:36.571Z,73.68
2019-03-17T02:05:36.533Z,73.98
2019-03-17T02:06:36.524Z,74.60
2019-03-17T02:07:36.514Z,74.70
2019-03-17T02:08:36.504Z,73.88
2019-03-17T02:09:36.515Z,74.08
2019-03-17T02:10:36.480Z,74.08
2019-03-17T02:11:36.471Z,72.96
2019-03-17T02:12:36.453Z,73.78
2019-03-17T02:13:36.449Z,72.96
2019-03-17T02:14:36.460Z,72.96
2019-03-17T02:15:36.443Z,72.75
2019-03-17T02:16:36.409Z,73.36
2019-03-17T02:17:36.405Z,72.75
2019-03-17T02:18:36.390Z,73.23
2019-03-17T02:19:36.414Z,72.61
2019-03-17T02:20:36.364Z,72.51
2019-03-17T02:21:36.361Z,73.27
2019-03-17T02:22:36.375Z,72.44
2019-03-17T02:23:36.331Z,72.44
2019-03-17T02:24:36.371Z,72.65
2019-03-17T02:25:36.310Z,72.65
2019-03-17T02:26:36.304Z,72.96
2019-03-17T02:27:36.307Z,72.58
2019-03-17T02:28:36.284Z,72.44
2019-03-17T02:29:36.302Z,72.24
2019-03-17T02:30:36.327Z,72.44
2019-03-17T02:31:36.256Z,72.65
2019-03-17T02:32:36.247Z,72.34
2019-03-17T02:33:36.225Z,72.34
2019-03-17T02:34:36.242Z,72.34
2019-03-17T02:35:39.306Z,71.83
2019-03-17T02:36:36.200Z,72.24
2019-03-17T02:37:36.193Z,71.52
2019-03-17T02:38:36.170Z,71.93
2019-03-17T02:39:36.164Z,71.72
2019-03-17T02:40:36.154Z,72.03
2019-03-17T02:41:36.167Z,71.62
2019-03-17T02:42:36.145Z,71.62
2019-03-17T02:43:36.115Z,70.70
2019-03-17T02:44:36.105Z,70.80
2019-03-17T02:45:36.092Z,70.80
2019-03-17T02:46:36.075Z,70.80
2019-03-17T02:47:36.087Z,70.50
2019-03-17T02:48:36.060Z,71.01
2019-03-17T02:49:36.048Z,71.01
2019-03-17T02:50:36.037Z,71.01
2019-03-17T02:51:36.032Z,70.70
2019-03-17T02:52:36.049Z,70.50
2019-03-17T02:53:36.001Z,70.60
2019-03-17T02:54:35.988Z,70.60
2019-03-17T02:55:35.983Z,70.18
2019-03-17T02:56:36.015Z,70.29
2019-03-17T02:57:35.956Z,70.18
2019-03-17T02:58:35.970Z,69.98
2019-03-17T02:59:35.942Z,69.88
2019-03-17T03:00:35.941Z,70.29
2019-03-17T03:01:35.947Z,70.08
2019-03-17T03:02:35.902Z,69.98
2019-03-17T03:03:35.941Z,69.98
2019-03-17T03:04:35.886Z,69.78
2019-03-17T03:05:35.874Z,69.84
2019-03-17T03:06:35.874Z,69.47
2019-03-17T03:07:35.853Z,69.57
2019-03-17T03:08:35.839Z,69.78
2019-03-17T03:09:35.875Z,69.47
2019-03-17T03:10:35.828Z,69.67
2019-03-17T03:11:35.827Z,69.67
2019-03-17T03:12:35.805Z,69.37
2019-03-17T03:13:35.796Z,69.37
2019-03-17T03:14:35.788Z,69.37
2019-03-17T03:15:35.816Z,69.26
2019-03-17T03:16:35.746Z,69.43
2019-03-17T03:17:35.748Z,69.57
2019-03-17T03:18:35.753Z,69.74
2019-03-17T03:19:35.716Z,69.16
2019-03-17T03:20:35.707Z,69.57
2019-03-17T03:21:35.726Z,69.57
2019-03-17T03:22:35.685Z,69.84
2019-03-17T03:23:35.667Z,70.08
2019-03-17T03:24:35.665Z,69.37
2019-03-17T03:25:35.699Z,69.26
2019-03-17T03:26:35.658Z,69.16
2019-03-17T03:27:35.625Z,69.26
2019-03-17T03:28:35.611Z,69.02
2019-03-17T03:29:35.613Z,69.06
2019-03-17T03:30:35.612Z,69.23
2019-03-17T03:31:35.617Z,69.47
2019-03-17T03:32:35.585Z,69.57
2019-03-17T03:33:35.590Z,69.95
2019-03-17T03:34:35.595Z,69.43
2019-03-17T03:35:35.557Z,69.33
2019-03-17T03:36:35.560Z,69.33
2019-03-17T03:37:35.532Z,69.57
2019-03-17T03:38:35.506Z,69.47
2019-03-17T03:39:35.493Z,69.06
2019-03-17T03:40:35.490Z,69.57
2019-03-17T03:41:35.528Z,69.88
2019-03-17T03:42:35.461Z,69.47
2019-03-17T03:43:35.446Z,69.47
2019-03-17T03:44:35.452Z,69.67
2019-03-17T03:45:35.425Z,69.88
2019-03-17T03:46:35.439Z,69.57
2019-03-17T03:47:35.428Z,69.47
2019-03-17T03:48:35.390Z,69.78
2019-03-17T03:49:35.384Z,69.88
2019-03-17T03:50:35.389Z,69.88
2019-03-17T03:51:35.393Z,69.88
2019-03-17T03:52:35.408Z,69.67
2019-03-17T03:53:35.337Z,69.98
2019-03-17T03:54:35.340Z,69.78
2019-03-17T03:55:35.329Z,70.08
2019-03-17T03:56:35.307Z,70.29
2019-03-17T03:57:35.314Z,70.01
2019-03-17T03:58:35.316Z,69.98
2019-03-17T03:59:35.285Z,70.29
2019-03-17T04:00:35.265Z,70.70
2019-03-17T04:01:35.256Z,70.80
2019-03-17T04:02:35.246Z,70.08
2019-03-17T04:03:35.273Z,70.29
2019-03-17T04:04:35.218Z,70.12
2019-03-17T04:05:35.214Z,70.94
2019-03-17T04:06:35.219Z,71.25
2019-03-17T04:07:35.206Z,71.42
2019-03-17T04:08:35.202Z,70.50
2019-03-17T04:09:35.201Z,70.39
2019-03-17T04:10:35.272Z,70.60
2019-03-17T04:11:35.143Z,70.80
2019-03-17T04:12:35.148Z,71.21
2019-03-17T04:13:35.115Z,70.73
2019-03-17T04:14:35.146Z,70.84
2019-03-17T04:15:35.097Z,70.94
2019-03-17T04:16:35.094Z,71.14
2019-03-17T04:17:35.082Z,71.14
2019-03-17T04:18:35.067Z,71.45
2019-03-17T04:19:35.091Z,71.14
2019-03-17T04:20:35.039Z,71.04
2019-03-17T04:21:35.039Z,71.25
2019-03-17T04:22:35.039Z,71.14
2019-03-17T04:23:35.011Z,71.66
2019-03-17T04:24:34.997Z,71.35
2019-03-17T04:25:35.041Z,71.14
2019-03-17T04:26:34.974Z,71.35
2019-03-17T04:27:34.993Z,71.55
2019-03-17T04:28:34.955Z,71.66
2019-03-17T04:29:34.943Z,71.66
2019-03-17T04:30:34.953Z,71.55
2019-03-17T04:31:34.946Z,71.35
2019-03-17T04:32:34.908Z,72.17
2019-03-17T04:33:34.903Z,71.45
2019-03-17T04:34:34.895Z,71.35
2019-03-17T04:35:34.883Z,72.17
2019-03-17T04:36:40.247Z,71.55
2019-03-17T04:37:35.881Z,71.35
2019-03-17T04:38:34.863Z,71.25
2019-03-17T04:39:34.828Z,71.25
2019-03-17T04:40:34.817Z,71.97
2019-03-17T04:41:34.809Z,71.35
2019-03-17T04:42:34.829Z,71.45
2019-03-17T04:43:34.791Z,71.17
2019-03-17T04:44:34.771Z,71.76
2019-03-17T04:45:34.765Z,71.55
2019-03-17T04:46:34.753Z,71.35
2019-03-17T04:47:34.738Z,71.69
2019-03-17T04:48:34.752Z,71.04
2019-03-17T04:49:34.717Z,71.55
2019-03-17T04:50:34.705Z,71.35
2019-03-17T04:51:34.694Z,71.25
2019-03-17T04:52:34.685Z,71.14
2019-03-17T04:53:34.697Z,71.25
2019-03-17T04:54:34.666Z,70.94
2019-03-17T04:55:34.656Z,70.84
2019-03-17T04:56:34.640Z,71.04
2019-03-17T04:57:34.626Z,71.25
2019-03-17T04:58:34.665Z,71.04
2019-03-17T04:59:34.611Z,70.84
2019-03-17T05:00:34.612Z,71.35
2019-03-17T05:01:34.611Z,71.35
2019-03-17T05:02:34.577Z,71.04
2019-03-17T05:03:34.559Z,71.04
2019-03-17T05:04:34.609Z,70.84
2019-03-17T05:05:34.538Z,70.84
2019-03-17T05:06:34.527Z,70.63
2019-03-17T05:07:34.516Z,71.14
2019-03-17T05:08:34.515Z,71.04
2019-03-17T05:09:34.494Z,70.94
2019-03-17T05:10:34.506Z,70.94
2019-03-17T05:11:34.477Z,70.63
2019-03-17T05:12:34.483Z,70.73
2019-03-17T05:13:34.462Z,70.73
2019-03-17T05:14:34.473Z,70.84
2019-03-17T05:15:34.563Z,71.25
2019-03-17T05:16:35.831Z,70.73
2019-03-17T05:17:34.438Z,70.84
2019-03-17T05:18:34.399Z,70.94
2019-03-17T05:19:34.388Z,70.94
2019-03-17T05:20:34.379Z,70.73
2019-03-17T05:21:34.396Z,70.32
2019-03-17T05:22:34.355Z,70.60
2019-03-17T05:23:34.339Z,70.60
2019-03-17T05:24:34.328Z,70.42
2019-03-17T05:25:34.321Z,70.08
2019-03-17T05:26:34.347Z,70.01
2019-03-17T05:27:34.321Z,70.60
2019-03-17T05:28:34.563Z,70.18
2019-03-17T05:29:34.276Z,70.39
2019-03-17T05:30:34.274Z,70.18
2019-03-17T05:31:34.263Z,70.18
2019-03-17T05:32:34.249Z,70.29
2019-03-17T05:33:34.288Z,70.90
2019-03-17T05:34:34.226Z,69.88
2019-03-17T05:35:34.213Z,70.29
2019-03-17T05:36:34.215Z,70.60
2019-03-17T05:37:34.207Z,70.08
2019-03-17T05:38:34.178Z,69.88
2019-03-17T05:39:34.218Z,70.08
2019-03-17T05:40:34.161Z,70.05
2019-03-17T05:41:34.284Z,70.05
2019-03-17T05:42:34.140Z,70.08
2019-03-17T05:43:34.120Z,69.98
2019-03-17T05:44:34.113Z,69.64
2019-03-17T05:45:34.100Z,70.29
2019-03-17T05:46:34.111Z,69.67
2019-03-17T05:47:34.094Z,70.29
2019-03-17T05:48:34.091Z,70.39
2019-03-17T05:49:34.051Z,69.64
2019-03-17T05:50:34.062Z,69.74
2019-03-17T05:51:34.034Z,69.64
2019-03-17T05:52:34.024Z,69.33
2019-03-17T05:53:34.033Z,69.37
2019-03-17T05:54:33.997Z,69.33
2019-03-17T05:55:33.985Z,69.54
2019-03-17T05:56:33.977Z,69.84
2019-03-17T05:57:33.989Z,69.43
2019-03-17T05:58:33.977Z,69.54
2019-03-17T05:59:33.940Z,69.43
2019-03-17T06:00:33.965Z,69.74
2019-03-17T06:01:33.916Z,69.37
2019-03-17T06:02:33.914Z,69.64
2019-03-17T06:03:33.921Z,69.43
2019-03-17T06:04:33.939Z,69.43
2019-03-17T06:05:33.881Z,69.64
2019-03-17T06:06:33.870Z,69.23
2019-03-17T06:07:33.853Z,69.43
2019-03-17T06:08:33.919Z,69.84
2019-03-17T06:09:33.842Z,69.43
2019-03-17T06:10:33.825Z,69.54
2019-03-17T06:11:33.805Z,69.84
2019-03-17T06:12:33.795Z,69.33
2019-03-17T06:13:33.809Z,70.15
2019-03-17T06:14:33.773Z,69.84
2019-03-17T06:15:33.761Z,69.74
2019-03-17T06:16:33.816Z,69.64
2019-03-17T06:17:33.742Z,69.84
2019-03-17T06:18:33.747Z,69.84
2019-03-17T06:19:33.731Z,69.84
2019-03-17T06:20:33.755Z,69.84
2019-03-17T06:21:33.697Z,70.05
2019-03-17T06:22:33.681Z,70.26
2019-03-17T06:23:33.711Z,69.95
2019-03-17T06:24:33.658Z,69.95
2019-03-17T06:25:33.646Z,69.95
2019-03-17T06:26:33.667Z,69.95
2019-03-17T06:27:33.626Z,70.36
2019-03-17T06:28:33.677Z,69.95
2019-03-17T06:29:33.621Z,69.84
2019-03-17T06:30:33.593Z,70.05
2019-03-17T06:31:33.581Z,70.46
2019-03-17T06:32:33.567Z,69.74
2019-03-17T06:33:33.582Z,70.15
2019-03-17T06:34:33.572Z,69.54
2019-03-17T06:35:33.687Z,69.84
2019-03-17T06:36:33.527Z,69.74
2019-03-17T06:37:33.522Z,69.64
2019-03-17T06:38:33.506Z,70.15
2019-03-17T06:39:33.515Z,70.05
2019-03-17T06:40:33.476Z,69.84
2019-03-17T06:41:33.489Z,69.43
2019-03-17T06:42:33.460Z,69.43
2019-03-17T06:43:33.465Z,69.95
2019-03-17T06:44:33.439Z,69.84
2019-03-17T06:45:33.453Z,69.74
2019-03-17T06:46:33.449Z,69.84
2019-03-17T06:47:33.398Z,69.84
2019-03-17T06:48:33.397Z,70.15
2019-03-17T06:49:33.398Z,70.26
2019-03-17T06:50:33.376Z,69.95
2019-03-17T06:51:33.416Z,69.95
2019-03-17T06:52:33.371Z,70.36
2019-03-17T06:53:33.353Z,69.84
2019-03-17T06:54:33.318Z,70.05
2019-03-17T06:55:33.334Z,70.15
2019-03-17T06:56:33.300Z,70.15
2019-03-17T06:57:33.328Z,69.84
2019-03-17T06:58:33.273Z,70.05
2019-03-17T06:59:33.289Z,70.15
2019-03-17T07:00:33.259Z,70.26
2019-03-17T07:01:33.269Z,70.56
2019-03-17T07:02:33.259Z,70.36
2019-03-17T07:03:33.219Z,70.26
2019-03-17T07:04:33.214Z,70.15
2019-03-17T07:05:33.247Z,70.26
2019-03-17T07:06:33.208Z,70.05
2019-03-17T07:07:43.161Z,70.26
2019-03-17T07:08:34.164Z,70.36
2019-03-17T07:09:33.153Z,70.77
2019-03-17T07:10:33.144Z,70.97
2019-03-17T07:11:33.150Z,70.26
2019-03-17T07:12:33.118Z,70.15
2019-03-17T07:13:33.148Z,70.02
2019-03-17T07:14:33.098Z,70.32
2019-03-17T07:15:33.084Z,69.92
2019-03-17T07:16:33.089Z,69.92
2019-03-17T07:17:33.107Z,70.43
2019-03-17T07:18:33.050Z,69.61
2019-03-17T07:19:33.042Z,69.92
2019-03-17T07:20:33.030Z,69.81
2019-03-17T07:21:33.013Z,70.02
2019-03-17T07:22:33.008Z,70.26
2019-03-17T07:23:34.290Z,70.05
2019-03-17T07:24:32.988Z,70.22
2019-03-17T07:25:32.968Z,70.26
2019-03-17T07:26:32.962Z,70.46
2019-03-17T07:27:32.953Z,70.77
2019-03-17T07:28:32.947Z,70.67
2019-03-17T07:29:32.947Z,70.87
2019-03-17T07:30:32.918Z,70.67
2019-03-17T07:31:32.899Z,70.77
2019-03-17T07:32:32.891Z,70.87
2019-03-17T07:33:32.907Z,70.87
2019-03-17T07:34:32.894Z,70.73
2019-03-17T07:35:32.855Z,70.64
2019-03-17T07:36:32.843Z,71.25
2019-03-17T07:37:32.837Z,70.43
2019-03-17T07:38:32.881Z,70.32
2019-03-17T07:39:32.810Z,70.77
2019-03-17T07:40:32.800Z,71.04
2019-03-17T07:41:32.805Z,70.53
2019-03-17T07:42:32.805Z,70.97
2019-03-17T07:43:32.813Z,70.26
2019-03-17T07:44:32.755Z,70.56
2019-03-17T07:45:32.751Z,70.97
2019-03-17T07:46:32.747Z,70.87
2019-03-17T07:47:35.541Z,70.94
2019-03-17T07:48:32.738Z,70.56
2019-03-17T07:49:32.701Z,70.87
2019-03-17T07:50:32.689Z,70.87
2019-03-17T07:51:32.674Z,70.43
2019-03-17T07:52:32.667Z,70.53
2019-03-17T07:53:32.786Z,70.22
2019-03-17T07:54:35.032Z,69.92
2019-03-17T07:55:32.636Z,69.81
2019-03-17T07:56:32.678Z,69.61
2019-03-17T07:57:32.607Z,69.47
2019-03-17T07:58:32.644Z,69.06
2019-03-17T07:59:32.624Z,68.65
2019-03-17T08:00:32.640Z,68.86
2019-03-17T08:01:32.560Z,68.86
2019-03-17T08:02:32.552Z,68.65
2019-03-17T08:03:32.549Z,68.52
2019-03-17T08:04:41.937Z,68.01
2019-03-17T08:05:33.513Z,68.21
2019-03-17T08:06:32.520Z,67.90
2019-03-17T08:07:32.510Z,67.29
2019-03-17T08:08:32.538Z,67.60
2019-03-17T08:09:32.497Z,66.98
2019-03-17T08:10:32.510Z,67.40
2019-03-17T08:11:32.473Z,67.40
2019-03-17T08:12:32.436Z,66.95
2019-03-17T08:13:32.431Z,66.75
2019-03-17T08:14:32.438Z,66.98
2019-03-17T08:15:32.406Z,66.75
2019-03-17T08:16:32.421Z,66.54
2019-03-17T08:17:32.386Z,66.95
2019-03-17T08:18:32.374Z,66.03
2019-03-17T08:19:32.363Z,66.85
2019-03-17T08:20:32.403Z,66.00
2019-03-17T08:21:32.340Z,66.61
2019-03-17T08:22:32.335Z,66.31
2019-03-17T08:23:32.312Z,65.69
2019-03-17T08:24:32.343Z,66.10
2019-03-17T08:25:32.291Z,65.49
2019-03-17T08:26:32.361Z,65.49
2019-03-17T08:27:32.271Z,65.49
2019-03-17T08:28:32.270Z,65.49
2019-03-17T08:29:32.263Z,65.97
2019-03-17T08:30:32.237Z,64.74
2019-03-17T08:31:32.227Z,64.74
2019-03-17T08:32:32.244Z,64.84
2019-03-17T08:33:32.204Z,64.33
2019-03-17T08:34:32.197Z,64.54
2019-03-17T08:35:32.198Z,64.61
2019-03-17T08:36:32.261Z,64.23
2019-03-17T08:37:32.189Z,63.79
2019-03-17T08:38:32.168Z,63.07
2019-03-17T08:39:32.156Z,63.39
2019-03-17T08:40:32.149Z,63.69
2019-03-17T08:41:32.115Z,64.00
2019-03-17T08:42:32.109Z,63.04
2019-03-17T08:43:32.123Z,62.95
2019-03-17T08:44:32.092Z,62.95
2019-03-17T08:45:32.075Z,63.25
2019-03-17T08:46:32.061Z,63.07
2019-03-17T08:47:32.049Z,63.35
2019-03-17T08:48:32.039Z,62.95
2019-03-17T08:49:32.056Z,62.81
2019-03-17T08:50:32.167Z,62.81
2019-03-17T08:51:32.022Z,61.99
2019-03-17T08:52:34.299Z,62.61
2019-03-17T08:53:31.981Z,61.90
2019-03-17T08:54:31.978Z,61.99
2019-03-17T08:55:31.962Z,61.69
2019-03-17T08:56:31.979Z,61.99
2019-03-17T08:57:31.947Z,61.69
2019-03-17T08:58:31.929Z,61.69
2019-03-17T08:59:31.913Z,61.69
2019-03-17T09:00:31.906Z,62.10
2019-03-17T09:01:31.943Z,61.49
2019-03-17T09:02:31.971Z,61.28
2019-03-17T09:03:31.898Z,61.49
2019-03-17T09:04:31.859Z,61.28
2019-03-17T09:05:31.861Z,61.58
2019-03-17T09:06:31.837Z,61.58
2019-03-17T09:07:31.833Z,61.90
2019-03-17T09:08:35.352Z,61.69
2019-03-17T09:09:31.803Z,61.99
2019-03-17T09:10:31.786Z,61.79
2019-03-17T09:11:31.804Z,61.99
2019-03-17T09:12:31.792Z,61.46
2019-03-17T09:13:31.776Z,61.66
2019-03-17T09:14:31.746Z,61.32
2019-03-17T09:15:31.729Z,61.46
2019-03-17T09:16:31.726Z,61.35
2019-03-17T09:17:31.735Z,60.94
2019-03-17T09:18:31.696Z,61.15
2019-03-17T09:19:31.685Z,61.58
2019-03-17T09:20:31.710Z,61.58
2019-03-17T09:21:31.661Z,62.20
2019-03-17T09:22:31.673Z,61.56
2019-03-17T09:23:31.637Z,61.15
2019-03-17T09:24:31.632Z,61.12
2019-03-17T09:25:31.643Z,60.94
2019-03-17T09:26:31.634Z,60.71
2019-03-17T09:27:31.591Z,60.51
2019-03-17T09:28:31.580Z,59.97
2019-03-17T09:29:31.568Z,60.30
2019-03-17T09:30:31.589Z,60.30
2019-03-17T09:31:31.573Z,60.30
2019-03-17T09:32:31.549Z,60.10
2019-03-17T09:33:31.529Z,60.41
2019-03-17T09:34:31.512Z,60.82
2019-03-17T09:35:31.504Z,59.66
2019-03-17T09:36:32.546Z,59.87
2019-03-17T09:37:31.480Z,59.66
2019-03-17T09:38:31.468Z,59.97
2019-03-17T09:39:31.461Z,60.05
2019-03-17T09:40:31.443Z,59.74
2019-03-17T09:41:31.460Z,59.12
2019-03-17T09:42:31.425Z,58.92
2019-03-17T09:43:31.430Z,59.12
2019-03-17T09:44:31.402Z,58.72
2019-03-17T09:45:31.387Z,59.23
2019-03-17T09:46:31.405Z,59.12
2019-03-17T09:47:31.396Z,58.62
2019-03-17T09:48:31.426Z,58.62
2019-03-17T09:49:31.358Z,58.72
2019-03-17T09:50:31.338Z,58.72
2019-03-17T09:51:31.322Z,58.92
2019-03-17T09:52:31.332Z,59.23
2019-03-17T09:53:31.304Z,59.16
2019-03-17T09:54:31.355Z,59.23
2019-03-17T09:55:31.275Z,58.72
2019-03-17T09:56:31.266Z,58.41
2019-03-17T09:57:31.263Z,58.49
2019-03-17T09:58:31.246Z,58.39
2019-03-17T09:59:31.235Z,58.69
2019-03-17T10:00:31.242Z,58.26
2019-03-17T10:01:31.218Z,57.85
2019-03-17T10:02:31.222Z,57.24
2019-03-17T10:03:31.232Z,57.95
2019-03-17T10:04:31.181Z,58.05
2019-03-17T10:05:31.173Z,58.15
2019-03-17T10:06:31.162Z,57.54
2019-03-17T10:07:31.150Z,57.54
2019-03-17T10:08:31.138Z,57.78
2019-03-17T10:09:31.166Z,58.08
2019-03-17T10:10:31.108Z,57.78
2019-03-17T10:11:31.101Z,58.69
2019-03-17T10:12:31.096Z,58.49
2019-03-17T10:13:31.086Z,58.80
2019-03-17T10:14:31.113Z,58.59
2019-03-17T10:15:31.051Z,57.98
2019-03-17T10:16:31.045Z,57.37
2019-03-17T10:17:31.030Z,57.95
2019-03-17T10:18:31.041Z,57.87
2019-03-17T10:19:31.009Z,57.65
2019-03-17T10:20:31.023Z,57.44
2019-03-17T10:21:31.020Z,57.37
2019-03-17T10:22:30.999Z,57.26
2019-03-17T10:23:30.984Z,57.26
2019-03-17T10:24:30.989Z,56.96
2019-03-17T10:25:30.958Z,57.78
2019-03-17T10:26:30.936Z,57.87
2019-03-17T10:27:30.924Z,57.67
2019-03-17T10:28:30.906Z,57.87
2019-03-17T10:29:30.981Z,58.08
2019-03-17T10:30:30.914Z,57.78
2019-03-17T10:31:30.902Z,57.37
2019-03-17T10:32:30.877Z,57.37
2019-03-17T10:33:30.898Z,58.28
2019-03-17T10:34:30.848Z,57.98
2019-03-17T10:35:30.862Z,57.87
2019-03-17T10:36:30.827Z,57.47
2019-03-17T10:37:30.811Z,57.90
2019-03-17T10:38:30.793Z,57.37
2019-03-17T10:39:30.787Z,57.57
2019-03-17T10:40:30.807Z,56.96
2019-03-17T10:41:30.789Z,57.06
2019-03-17T10:42:30.755Z,56.85
2019-03-17T10:43:30.742Z,57.47
2019-03-17T10:44:30.724Z,57.26
2019-03-17T10:45:30.728Z,57.57
2019-03-17T10:46:30.738Z,57.65
2019-03-17T10:47:30.729Z,57.44
2019-03-17T10:48:30.705Z,57.75
2019-03-17T10:49:30.675Z,57.95
2019-03-17T10:50:30.663Z,56.93
2019-03-17T10:51:30.679Z,57.75
2019-03-17T10:52:30.683Z,57.75
2019-03-17T10:53:30.631Z,58.15
2019-03-17T10:54:30.612Z,57.92
2019-03-17T10:55:30.601Z,56.90
2019-03-17T10:56:30.590Z,56.90
2019-03-17T10:57:30.631Z,56.70
2019-03-17T10:58:30.589Z,57.21
2019-03-17T10:59:30.565Z,57.21
2019-03-17T11:00:30.545Z,57.24
2019-03-17T11:01:30.538Z,57.21
2019-03-17T11:02:30.547Z,57.01
2019-03-17T11:03:30.543Z,57.24
2019-03-17T11:04:30.505Z,56.83
2019-03-17T11:05:30.490Z,56.90
2019-03-17T11:06:30.484Z,57.72
2019-03-17T11:07:30.489Z,57.75
2019-03-17T11:08:30.477Z,57.92
2019-03-17T11:09:30.445Z,57.01
2019-03-17T11:10:30.434Z,57.75
2019-03-17T11:11:30.439Z,57.44
2019-03-17T11:12:30.423Z,57.75
2019-03-17T11:13:30.457Z,57.95
2019-03-17T11:14:30.393Z,57.54
2019-03-17T11:15:30.394Z,58.05
2019-03-17T11:16:30.403Z,57.65
2019-03-17T11:17:30.421Z,57.34
2019-03-17T11:18:30.362Z,57.06
2019-03-17T11:19:30.463Z,57.67
2019-03-17T11:20:30.331Z,57.98
2019-03-17T11:21:30.319Z,58.39
2019-03-17T11:22:30.303Z,58.49
2019-03-17T11:23:30.312Z,58.39
2019-03-17T11:24:30.365Z,58.49
2019-03-17T11:25:30.289Z,58.69
2019-03-17T11:26:30.255Z,58.69
2019-03-17T11:27:30.274Z,58.59
2019-03-17T11:28:30.247Z,57.85
2019-03-17T11:29:30.223Z,58.26
2019-03-17T11:30:30.258Z,57.04
2019-03-17T11:31:30.211Z,57.44
2019-03-17T11:32:30.199Z,57.54
2019-03-17T11:33:30.196Z,57.24
2019-03-17T11:34:30.188Z,57.24
2019-03-17T11:35:30.153Z,57.14
2019-03-17T11:36:30.147Z,58.05
2019-03-17T11:37:30.133Z,57.04
2019-03-17T11:38:30.130Z,57.65
2019-03-17T11:39:37.661Z,57.95
2019-03-17T11:40:31.096Z,57.24
2019-03-17T11:41:30.129Z,57.24
2019-03-17T11:42:30.079Z,57.85
2019-03-17T11:43:30.071Z,57.85
2019-03-17T11:44:30.050Z,57.26
2019-03-17T11:45:30.080Z,57.57
2019-03-17T11:46:30.048Z,57.37
2019-03-17T11:47:30.022Z,57.78
2019-03-17T11:48:30.031Z,57.87
2019-03-17T11:49:29.993Z,57.67
2019-03-17T11:50:29.985Z,57.37
2019-03-17T11:51:30.011Z,57.26
2019-03-17T11:52:29.966Z,57.47
2019-03-17T11:53:29.956Z,57.87
2019-03-17T11:54:29.942Z,57.80
2019-03-17T11:55:31.865Z,58.11
2019-03-17T11:56:29.948Z,58.41
2019-03-17T11:57:29.921Z,58.01
2019-03-17T11:58:29.899Z,58.82
2019-03-17T11:59:29.887Z,58.72
2019-03-17T12:00:29.875Z,58.72
2019-03-17T12:01:29.892Z,58.21
2019-03-17T12:02:29.849Z,58.72
2019-03-17T12:03:29.843Z,58.41
2019-03-17T12:04:29.861Z,58.51
2019-03-17T12:05:29.824Z,59.03
2019-03-17T12:06:29.849Z,58.82
2019-03-17T12:07:29.803Z,58.92
2019-03-17T12:08:29.782Z,58.92
2019-03-17T12:09:29.794Z,58.92
2019-03-17T12:10:29.767Z,58.92
2019-03-17T12:11:29.750Z,58.92
2019-03-17T12:12:29.762Z,58.72
2019-03-17T12:13:29.756Z,58.41
2019-03-17T12:14:29.727Z,58.21
2019-03-17T12:15:29.711Z,58.92
2019-03-17T12:16:29.697Z,58.92
2019-03-17T12:17:29.710Z,58.51
2019-03-17T12:18:29.679Z,58.51
2019-03-17T12:19:32.601Z,58.21
2019-03-17T12:20:29.651Z,58.82
2019-03-17T12:21:29.642Z,58.41
2019-03-17T12:22:29.674Z,58.62
2019-03-17T12:23:29.629Z,58.92
2019-03-17T12:24:29.610Z,58.31
2019-03-17T12:25:29.602Z,58.41
2019-03-17T12:26:29.588Z,58.92
2019-03-17T12:27:29.573Z,58.51
2019-03-17T12:28:29.591Z,58.51
2019-03-17T12:29:29.550Z,58.92
2019-03-17T12:30:29.540Z,58.92
2019-03-17T12:31:29.530Z,58.92
2019-03-17T12:32:29.524Z,58.62
2019-03-17T12:33:29.574Z,58.82
2019-03-17T12:34:29.531Z,58.92
2019-03-17T12:35:29.484Z,58.82
2019-03-17T12:36:29.488Z,59.12
2019-03-17T12:37:29.491Z,59.03
2019-03-17T12:38:29.454Z,59.12
2019-03-17T12:39:29.596Z,59.12
2019-03-17T12:40:29.429Z,59.33
2019-03-17T12:41:29.439Z,59.23
2019-03-17T12:42:29.406Z,59.43
2019-03-17T12:43:29.394Z,59.03
2019-03-17T12:44:29.384Z,59.12
2019-03-17T12:45:29.483Z,59.23
2019-03-17T12:46:29.367Z,59.12
2019-03-17T12:47:29.354Z,59.12
2019-03-17T12:48:29.349Z,58.92
2019-03-17T12:49:29.335Z,58.82
2019-03-17T12:50:29.326Z,59.16
2019-03-17T12:51:29.357Z,59.56
2019-03-17T12:52:29.339Z,59.77